sensor_id;sensor_type;location;lat;lon;timestamp;P1;durP1;ratioP1;P2;durP2;ratioP2
21825;SDS011;11075;47.944;11.776;2023-10-19T00:00:21;29.60;;;18.67;;
21825;SDS011;11075;47.944;11.776;2023-10-19T00:02:49;27.60;;;17.87;;
21825;SDS011;11075;47.944;11.776;2023-10-19T00:05:19;31.37;;;18.33;;
21825;SDS011;11075;47.944;11.776;2023-10-19T00:07:46;27.93;;;18.50;;
21825;SDS011;11075;47.944;11.776;2023-10-19T00:10:13;27.33;;;18.70;;
21825;SDS011;11075;47.944;11.776;2023-10-19T00:12:42;30.67;;;18.93;;
21825;SDS011;11075;47.944;11.776;2023-10-19T00:15:10;28.40;;;17.97;;
21825;SDS011;11075;47.944;11.776;2023-10-19T00:17:38;30.17;;;19.10;;
21825;SDS011;11075;47.944;11.776;2023-10-19T00:20:06;36.77;;;20.03;;
21825;SDS011;11075;47.944;11.776;2023-10-19T00:22:52;37.70;;;20.17;;
21825;SDS011;11075;47.944;11.776;2023-10-19T00:25:19;37.03;;;20.73;;
21825;SDS011;11075;47.944;11.776;2023-10-19T00:27:49;34.63;;;21.47;;
21825;SDS011;11075;47.944;11.776;2023-10-19T00:30:17;34.10;;;20.83;;
21825;SDS011;11075;47.944;11.776;2023-10-19T00:32:47;41.20;;;24.10;;
21825;SDS011;11075;47.944;11.776;2023-10-19T00:35:14;38.73;;;22.33;;
21825;SDS011;11075;47.944;11.776;2023-10-19T00:38:07;30.30;;;19.97;;
21825;SDS011;11075;47.944;11.776;2023-10-19T00:41:09;30.53;;;18.50;;
21825;SDS011;11075;47.944;11.776;2023-10-19T00:43:37;35.20;;;19.37;;
21825;SDS011;11075;47.944;11.776;2023-10-19T00:46:11;32.50;;;20.17;;
21825;SDS011;11075;47.944;11.776;2023-10-19T00:51:18;30.20;;;19.67;;
21825;SDS011;11075;47.944;11.776;2023-10-19T00:53:58;30.07;;;20.10;;
21825;SDS011;11075;47.944;11.776;2023-10-19T00:56:34;29.73;;;19.30;;
21825;SDS011;11075;47.944;11.776;2023-10-19T00:59:02;28.87;;;19.00;;
21825;SDS011;11075;47.944;11.776;2023-10-19T01:01:41;30.87;;;19.53;;
21825;SDS011;11075;47.944;11.776;2023-10-19T01:04:14;27.63;;;19.03;;
21825;SDS011;11075;47.944;11.776;2023-10-19T01:06:46;30.70;;;19.87;;
21825;SDS011;11075;47.944;11.776;2023-10-19T01:09:45;32.57;;;19.87;;
21825;SDS011;11075;47.944;11.776;2023-10-19T01:12:12;35.40;;;18.80;;
21825;SDS011;11075;47.944;11.776;2023-10-19T01:17:47;33.93;;;18.97;;
21825;SDS011;11075;47.944;11.776;2023-10-19T01:20:20;33.27;;;18.83;;
21825;SDS011;11075;47.944;11.776;2023-10-19T01:26:01;34.80;;;20.03;;
21825;SDS011;11075;47.944;11.776;2023-10-19T01:28:37;72.80;;;45.70;;
21825;SDS011;11075;47.944;11.776;2023-10-19T01:31:08;45.90;;;29.13;;
21825;SDS011;11075;47.944;11.776;2023-10-19T01:33:35;35.87;;;22.67;;
21825;SDS011;11075;47.944;11.776;2023-10-19T01:36:02;30.43;;;20.20;;
21825;SDS011;11075;47.944;11.776;2023-10-19T01:38:39;34.73;;;20.77;;
21825;SDS011;11075;47.944;11.776;2023-10-19T01:41:06;30.80;;;19.73;;
21825;SDS011;11075;47.944;11.776;2023-10-19T01:43:46;29.87;;;18.77;;
21825;SDS011;11075;47.944;11.776;2023-10-19T01:46:15;30.43;;;19.50;;
21825;SDS011;11075;47.944;11.776;2023-10-19T01:48:59;25.23;;;18.17;;
21825;SDS011;11075;47.944;11.776;2023-10-19T01:51:28;30.83;;;19.83;;
21825;SDS011;11075;47.944;11.776;2023-10-19T01:53:59;29.60;;;19.23;;
21825;SDS011;11075;47.944;11.776;2023-10-19T01:56:29;31.10;;;19.70;;
21825;SDS011;11075;47.944;11.776;2023-10-19T01:58:56;29.80;;;20.57;;
21825;SDS011;11075;47.944;11.776;2023-10-19T02:01:25;29.73;;;19.13;;
21825;SDS011;11075;47.944;11.776;2023-10-19T02:03:52;27.57;;;19.20;;
21825;SDS011;11075;47.944;11.776;2023-10-19T02:06:28;28.00;;;17.90;;
21825;SDS011;11075;47.944;11.776;2023-10-19T02:09:05;30.37;;;18.50;;
21825;SDS011;11075;47.944;11.776;2023-10-19T02:11:44;32.40;;;19.87;;
21825;SDS011;11075;47.944;11.776;2023-10-19T02:14:15;29.83;;;18.50;;
21825;SDS011;11075;47.944;11.776;2023-10-19T02:16:46;25.07;;;17.40;;
21825;SDS011;11075;47.944;11.776;2023-10-19T02:19:18;27.37;;;17.87;;
21825;SDS011;11075;47.944;11.776;2023-10-19T02:21:53;25.77;;;17.30;;
21825;SDS011;11075;47.944;11.776;2023-10-19T02:24:22;25.17;;;17.10;;
21825;SDS011;11075;47.944;11.776;2023-10-19T02:26:49;25.50;;;17.50;;
21825;SDS011;11075;47.944;11.776;2023-10-19T02:29:20;23.60;;;16.70;;
21825;SDS011;11075;47.944;11.776;2023-10-19T02:31:50;26.23;;;17.07;;
21825;SDS011;11075;47.944;11.776;2023-10-19T02:34:19;25.17;;;17.00;;
21825;SDS011;11075;47.944;11.776;2023-10-19T02:36:46;24.53;;;16.77;;
21825;SDS011;11075;47.944;11.776;2023-10-19T02:39:15;28.37;;;16.93;;
21825;SDS011;11075;47.944;11.776;2023-10-19T02:41:46;24.10;;;16.30;;
21825;SDS011;11075;47.944;11.776;2023-10-19T02:44:17;28.40;;;16.97;;
21825;SDS011;11075;47.944;11.776;2023-10-19T02:46:46;27.70;;;17.20;;
21825;SDS011;11075;47.944;11.776;2023-10-19T02:49:14;29.17;;;17.63;;
21825;SDS011;11075;47.944;11.776;2023-10-19T02:51:46;22.40;;;15.10;;
21825;SDS011;11075;47.944;11.776;2023-10-19T02:54:15;27.43;;;16.50;;
21825;SDS011;11075;47.944;11.776;2023-10-19T02:56:49;22.37;;;14.73;;
21825;SDS011;11075;47.944;11.776;2023-10-19T02:59:22;23.20;;;15.90;;
21825;SDS011;11075;47.944;11.776;2023-10-19T03:01:51;23.03;;;16.50;;
21825;SDS011;11075;47.944;11.776;2023-10-19T03:04:20;22.77;;;15.33;;
21825;SDS011;11075;47.944;11.776;2023-10-19T03:06:47;21.67;;;14.10;;
21825;SDS011;11075;47.944;11.776;2023-10-19T03:09:14;22.00;;;13.90;;
21825;SDS011;11075;47.944;11.776;2023-10-19T03:11:46;20.73;;;13.83;;
21825;SDS011;11075;47.944;11.776;2023-10-19T03:14:13;23.47;;;14.77;;
21825;SDS011;11075;47.944;11.776;2023-10-19T03:16:40;19.97;;;14.07;;
21825;SDS011;11075;47.944;11.776;2023-10-19T03:19:10;20.27;;;14.57;;
21825;SDS011;11075;47.944;11.776;2023-10-19T03:21:37;26.47;;;13.47;;
21825;SDS011;11075;47.944;11.776;2023-10-19T03:24:15;20.07;;;13.13;;
21825;SDS011;11075;47.944;11.776;2023-10-19T03:27:02;19.67;;;12.73;;
21825;SDS011;11075;47.944;11.776;2023-10-19T03:29:40;18.23;;;11.67;;
21825;SDS011;11075;47.944;11.776;2023-10-19T03:32:08;20.13;;;12.30;;
21825;SDS011;11075;47.944;11.776;2023-10-19T03:34:35;21.07;;;12.67;;
21825;SDS011;11075;47.944;11.776;2023-10-19T03:37:05;18.00;;;12.23;;
21825;SDS011;11075;47.944;11.776;2023-10-19T03:39:36;18.40;;;12.00;;
21825;SDS011;11075;47.944;11.776;2023-10-19T03:42:05;20.70;;;12.57;;
21825;SDS011;11075;47.944;11.776;2023-10-19T03:44:36;20.00;;;12.57;;
21825;SDS011;11075;47.944;11.776;2023-10-19T03:47:23;19.57;;;13.23;;
21825;SDS011;11075;47.944;11.776;2023-10-19T03:50:11;21.20;;;13.27;;
21825;SDS011;11075;47.944;11.776;2023-10-19T03:52:47;20.27;;;13.10;;
21825;SDS011;11075;47.944;11.776;2023-10-19T03:55:14;17.10;;;12.97;;
21825;SDS011;11075;47.944;11.776;2023-10-19T03:57:50;17.20;;;12.63;;
21825;SDS011;11075;47.944;11.776;2023-10-19T04:00:20;15.13;;;11.40;;
21825;SDS011;11075;47.944;11.776;2023-10-19T04:02:55;20.67;;;10.53;;
21825;SDS011;11075;47.944;11.776;2023-10-19T04:05:22;15.87;;;10.03;;
21825;SDS011;11075;47.944;11.776;2023-10-19T04:07:49;15.10;;;10.40;;
21825;SDS011;11075;47.944;11.776;2023-10-19T04:10:21;10.60;;;8.00;;
21825;SDS011;11075;47.944;11.776;2023-10-19T04:13:05;12.53;;;8.37;;
21825;SDS011;11075;47.944;11.776;2023-10-19T04:15:39;14.17;;;8.30;;
21825;SDS011;11075;47.944;11.776;2023-10-19T04:18:08;15.73;;;9.87;;
21825;SDS011;11075;47.944;11.776;2023-10-19T04:20:36;11.50;;;8.13;;
21825;SDS011;11075;47.944;11.776;2023-10-19T04:23:22;12.57;;;8.53;;
21825;SDS011;11075;47.944;11.776;2023-10-19T04:25:54;17.93;;;9.20;;
21825;SDS011;11075;47.944;11.776;2023-10-19T04:28:25;9.73;;;7.43;;
21825;SDS011;11075;47.944;11.776;2023-10-19T04:31:04;12.97;;;7.27;;
21825;SDS011;11075;47.944;11.776;2023-10-19T04:33:33;11.57;;;6.83;;
21825;SDS011;11075;47.944;11.776;2023-10-19T04:36:03;11.50;;;7.67;;
21825;SDS011;11075;47.944;11.776;2023-10-19T04:38:30;10.23;;;7.27;;
21825;SDS011;11075;47.944;11.776;2023-10-19T04:41:06;11.47;;;6.30;;
21825;SDS011;11075;47.944;11.776;2023-10-19T04:43:38;8.33;;;6.10;;
21825;SDS011;11075;47.944;11.776;2023-10-19T04:46:07;11.27;;;6.30;;
21825;SDS011;11075;47.944;11.776;2023-10-19T04:48:40;7.70;;;5.50;;
21825;SDS011;11075;47.944;11.776;2023-10-19T04:51:08;7.50;;;5.77;;
21825;SDS011;11075;47.944;11.776;2023-10-19T04:53:38;9.07;;;5.77;;
21825;SDS011;11075;47.944;11.776;2023-10-19T04:56:05;8.90;;;6.37;;
21825;SDS011;11075;47.944;11.776;2023-10-19T04:58:39;7.97;;;5.40;;
21825;SDS011;11075;47.944;11.776;2023-10-19T05:01:06;7.13;;;5.60;;
21825;SDS011;11075;47.944;11.776;2023-10-19T05:03:33;7.47;;;5.60;;
21825;SDS011;11075;47.944;11.776;2023-10-19T05:06:02;6.90;;;5.13;;
21825;SDS011;11075;47.944;11.776;2023-10-19T05:08:29;7.20;;;5.47;;
21825;SDS011;11075;47.944;11.776;2023-10-19T05:10:59;7.07;;;5.10;;
21825;SDS011;11075;47.944;11.776;2023-10-19T05:13:26;5.27;;;4.40;;
21825;SDS011;11075;47.944;11.776;2023-10-19T05:15:53;6.50;;;5.10;;
21825;SDS011;11075;47.944;11.776;2023-10-19T05:18:21;7.70;;;5.30;;
21825;SDS011;11075;47.944;11.776;2023-10-19T05:20:49;5.97;;;5.03;;
21825;SDS011;11075;47.944;11.776;2023-10-19T05:23:25;12.03;;;4.90;;
21825;SDS011;11075;47.944;11.776;2023-10-19T05:25:53;7.43;;;4.37;;
21825;SDS011;11075;47.944;11.776;2023-10-19T05:28:26;9.40;;;4.23;;
21825;SDS011;11075;47.944;11.776;2023-10-19T05:30:53;9.87;;;4.00;;
21825;SDS011;11075;47.944;11.776;2023-10-19T05:33:20;6.60;;;4.90;;
21825;SDS011;11075;47.944;11.776;2023-10-19T05:35:50;9.93;;;5.30;;
21825;SDS011;11075;47.944;11.776;2023-10-19T05:38:17;11.63;;;4.50;;
21825;SDS011;11075;47.944;11.776;2023-10-19T05:40:46;6.33;;;4.27;;
21825;SDS011;11075;47.944;11.776;2023-10-19T05:43:14;4.80;;;4.20;;
21825;SDS011;11075;47.944;11.776;2023-10-19T05:45:40;5.33;;;3.83;;
21825;SDS011;11075;47.944;11.776;2023-10-19T05:48:08;5.97;;;4.50;;
21825;SDS011;11075;47.944;11.776;2023-10-19T05:50:35;6.20;;;4.43;;
21825;SDS011;11075;47.944;11.776;2023-10-19T05:53:03;9.97;;;4.93;;
21825;SDS011;11075;47.944;11.776;2023-10-19T05:55:31;7.03;;;4.80;;
21825;SDS011;11075;47.944;11.776;2023-10-19T05:57:58;5.63;;;4.30;;
21825;SDS011;11075;47.944;11.776;2023-10-19T06:00:25;8.27;;;4.43;;
21825;SDS011;11075;47.944;11.776;2023-10-19T06:02:52;5.87;;;4.50;;
21825;SDS011;11075;47.944;11.776;2023-10-19T06:05:19;6.13;;;4.97;;
21825;SDS011;11075;47.944;11.776;2023-10-19T06:07:47;9.50;;;5.27;;
21825;SDS011;11075;47.944;11.776;2023-10-19T06:10:16;6.63;;;5.73;;
21825;SDS011;11075;47.944;11.776;2023-10-19T06:12:45;10.10;;;5.30;;
21825;SDS011;11075;47.944;11.776;2023-10-19T06:15:13;7.43;;;5.47;;
21825;SDS011;11075;47.944;11.776;2023-10-19T06:17:41;7.23;;;5.67;;
21825;SDS011;11075;47.944;11.776;2023-10-19T06:20:11;9.93;;;6.03;;
21825;SDS011;11075;47.944;11.776;2023-10-19T06:22:58;8.50;;;5.10;;
21825;SDS011;11075;47.944;11.776;2023-10-19T06:25:33;9.60;;;4.90;;
21825;SDS011;11075;47.944;11.776;2023-10-19T06:28:03;8.07;;;4.40;;
21825;SDS011;11075;47.944;11.776;2023-10-19T06:30:30;7.70;;;4.57;;
21825;SDS011;11075;47.944;11.776;2023-10-19T06:32:58;6.03;;;4.73;;
21825;SDS011;11075;47.944;11.776;2023-10-19T06:35:32;5.57;;;4.47;;
21825;SDS011;11075;47.944;11.776;2023-10-19T06:38:00;6.87;;;4.73;;
21825;SDS011;11075;47.944;11.776;2023-10-19T06:40:27;13.70;;;5.57;;
21825;SDS011;11075;47.944;11.776;2023-10-19T06:42:54;10.00;;;5.60;;
21825;SDS011;11075;47.944;11.776;2023-10-19T06:45:22;9.18;;;7.18;;
21825;SDS011;11075;47.944;11.776;2023-10-19T06:47:51;9.20;;;5.23;;
21825;SDS011;11075;47.944;11.776;2023-10-19T06:50:19;6.13;;;4.70;;
21825;SDS011;11075;47.944;11.776;2023-10-19T06:52:48;5.43;;;4.60;;
21825;SDS011;11075;47.944;11.776;2023-10-19T06:55:16;5.43;;;4.30;;
21825;SDS011;11075;47.944;11.776;2023-10-19T06:57:49;6.07;;;4.10;;
21825;SDS011;11075;47.944;11.776;2023-10-19T07:00:24;5.73;;;3.83;;
21825;SDS011;11075;47.944;11.776;2023-10-19T07:02:55;8.73;;;4.27;;
21825;SDS011;11075;47.944;11.776;2023-10-19T07:05:23;6.83;;;4.40;;
21825;SDS011;11075;47.944;11.776;2023-10-19T07:07:51;8.73;;;4.93;;
21825;SDS011;11075;47.944;11.776;2023-10-19T07:10:20;6.93;;;4.23;;
21825;SDS011;11075;47.944;11.776;2023-10-19T07:12:48;5.27;;;4.30;;
21825;SDS011;11075;47.944;11.776;2023-10-19T07:15:18;7.60;;;3.90;;
21825;SDS011;11075;47.944;11.776;2023-10-19T07:17:49;4.32;;;3.92;;
21825;SDS011;11075;47.944;11.776;2023-10-19T07:20:19;9.97;;;4.30;;
21825;SDS011;11075;47.944;11.776;2023-10-19T07:22:55;6.97;;;4.40;;
21825;SDS011;11075;47.944;11.776;2023-10-19T07:25:23;6.53;;;4.27;;
21825;SDS011;11075;47.944;11.776;2023-10-19T07:27:52;8.77;;;4.73;;
21825;SDS011;11075;47.944;11.776;2023-10-19T07:30:20;7.07;;;4.37;;
21825;SDS011;11075;47.944;11.776;2023-10-19T07:32:48;6.10;;;4.10;;
21825;SDS011;11075;47.944;11.776;2023-10-19T07:35:26;6.47;;;4.43;;
21825;SDS011;11075;47.944;11.776;2023-10-19T07:37:54;5.88;;;3.55;;
21825;SDS011;11075;47.944;11.776;2023-10-19T07:40:23;4.23;;;3.73;;
21825;SDS011;11075;47.944;11.776;2023-10-19T07:42:50;4.53;;;3.70;;
21825;SDS011;11075;47.944;11.776;2023-10-19T07:45:21;5.87;;;3.73;;
21825;SDS011;11075;47.944;11.776;2023-10-19T07:47:48;9.63;;;3.50;;
21825;SDS011;11075;47.944;11.776;2023-10-19T07:50:15;6.10;;;3.20;;
21825;SDS011;11075;47.944;11.776;2023-10-19T07:52:46;8.07;;;3.67;;
21825;SDS011;11075;47.944;11.776;2023-10-19T07:55:15;5.00;;;3.70;;
21825;SDS011;11075;47.944;11.776;2023-10-19T07:57:43;5.93;;;3.50;;
21825;SDS011;11075;47.944;11.776;2023-10-19T08:00:11;6.35;;;3.10;;
21825;SDS011;11075;47.944;11.776;2023-10-19T08:02:41;4.20;;;3.05;;
21825;SDS011;11075;47.944;11.776;2023-10-19T08:05:08;5.40;;;3.03;;
21825;SDS011;11075;47.944;11.776;2023-10-19T08:07:38;4.07;;;3.10;;
21825;SDS011;11075;47.944;11.776;2023-10-19T08:10:14;3.28;;;2.90;;
21825;SDS011;11075;47.944;11.776;2023-10-19T08:12:42;5.82;;;2.80;;
21825;SDS011;11075;47.944;11.776;2023-10-19T08:15:11;3.83;;;3.30;;
21825;SDS011;11075;47.944;11.776;2023-10-19T08:17:39;8.30;;;4.90;;
21825;SDS011;11075;47.944;11.776;2023-10-19T08:20:08;9.18;;;5.70;;
21825;SDS011;11075;47.944;11.776;2023-10-19T08:22:37;11.90;;;6.88;;
21825;SDS011;11075;47.944;11.776;2023-10-19T08:25:04;7.00;;;5.32;;
21825;SDS011;11075;47.944;11.776;2023-10-19T08:27:41;7.55;;;3.55;;
21825;SDS011;11075;47.944;11.776;2023-10-19T08:30:11;6.32;;;2.67;;
21825;SDS011;11075;47.944;11.776;2023-10-19T08:32:47;5.80;;;2.92;;
21825;SDS011;11075;47.944;11.776;2023-10-19T08:35:15;9.05;;;2.60;;
21825;SDS011;11075;47.944;11.776;2023-10-19T08:37:44;3.30;;;2.58;;
21825;SDS011;11075;47.944;11.776;2023-10-19T08:40:13;6.72;;;2.28;;
21825;SDS011;11075;47.944;11.776;2023-10-19T08:42:44;3.65;;;2.42;;
21825;SDS011;11075;47.944;11.776;2023-10-19T08:45:12;3.33;;;2.22;;
21825;SDS011;11075;47.944;11.776;2023-10-19T08:47:41;5.22;;;2.13;;
21825;SDS011;11075;47.944;11.776;2023-10-19T08:50:15;5.05;;;1.98;;
21825;SDS011;11075;47.944;11.776;2023-10-19T08:52:42;3.83;;;2.00;;
21825;SDS011;11075;47.944;11.776;2023-10-19T08:55:09;3.30;;;2.03;;
21825;SDS011;11075;47.944;11.776;2023-10-19T08:57:39;4.80;;;1.85;;
21825;SDS011;11075;47.944;11.776;2023-10-19T09:00:06;2.05;;;1.85;;
21825;SDS011;11075;47.944;11.776;2023-10-19T09:02:34;7.35;;;1.88;;
21825;SDS011;11075;47.944;11.776;2023-10-19T09:05:07;3.05;;;1.60;;
21825;SDS011;11075;47.944;11.776;2023-10-19T09:07:34;2.38;;;1.55;;
21825;SDS011;11075;47.944;11.776;2023-10-19T09:10:01;5.72;;;1.70;;
21825;SDS011;11075;47.944;11.776;2023-10-19T09:12:29;4.13;;;1.73;;
21825;SDS011;11075;47.944;11.776;2023-10-19T09:14:56;2.22;;;1.75;;
21825;SDS011;11075;47.944;11.776;2023-10-19T09:17:29;3.63;;;1.85;;
21825;SDS011;11075;47.944;11.776;2023-10-19T09:19:56;1.92;;;1.77;;
21825;SDS011;11075;47.944;11.776;2023-10-19T09:22:25;2.97;;;1.95;;
21825;SDS011;11075;47.944;11.776;2023-10-19T09:24:53;3.42;;;1.80;;
21825;SDS011;11075;47.944;11.776;2023-10-19T09:27:20;2.00;;;1.70;;
21825;SDS011;11075;47.944;11.776;2023-10-19T09:29:47;3.30;;;1.80;;
21825;SDS011;11075;47.944;11.776;2023-10-19T09:32:14;3.00;;;1.77;;
21825;SDS011;11075;47.944;11.776;2023-10-19T09:34:44;4.18;;;1.80;;
21825;SDS011;11075;47.944;11.776;2023-10-19T09:37:11;3.67;;;1.60;;
21825;SDS011;11075;47.944;11.776;2023-10-19T09:39:39;3.03;;;1.88;;
21825;SDS011;11075;47.944;11.776;2023-10-19T09:42:10;3.17;;;1.90;;
21825;SDS011;11075;47.944;11.776;2023-10-19T09:44:42;9.98;;;2.42;;
21825;SDS011;11075;47.944;11.776;2023-10-19T09:47:11;6.85;;;2.00;;
21825;SDS011;11075;47.944;11.776;2023-10-19T09:49:40;8.30;;;2.38;;
21825;SDS011;11075;47.944;11.776;2023-10-19T09:52:10;2.38;;;1.88;;
21825;SDS011;11075;47.944;11.776;2023-10-19T09:54:51;2.80;;;1.95;;
21825;SDS011;11075;47.944;11.776;2023-10-19T09:57:30;1.50;;;1.40;;
21825;SDS011;11075;47.944;11.776;2023-10-19T10:00:03;1.45;;;1.20;;
21825;SDS011;11075;47.944;11.776;2023-10-19T10:02:43;6.90;;;1.60;;
21825;SDS011;11075;47.944;11.776;2023-10-19T10:10:50;3.65;;;1.60;;
21825;SDS011;11075;47.944;11.776;2023-10-19T10:13:35;1.83;;;1.40;;
21825;SDS011;11075;47.944;11.776;2023-10-19T10:16:03;3.05;;;1.50;;
21825;SDS011;11075;47.944;11.776;2023-10-19T10:18:33;3.70;;;1.52;;
21825;SDS011;11075;47.944;11.776;2023-10-19T10:21:05;3.10;;;1.45;;
21825;SDS011;11075;47.944;11.776;2023-10-19T10:23:40;10.57;;;6.35;;
21825;SDS011;11075;47.944;11.776;2023-10-19T10:26:22;6.72;;;3.60;;
21825;SDS011;11075;47.944;11.776;2023-10-19T10:31:44;3.55;;;1.50;;
21825;SDS011;11075;47.944;11.776;2023-10-19T10:37:05;7.93;;;1.75;;
21825;SDS011;11075;47.944;11.776;2023-10-19T10:39:38;6.72;;;1.67;;
21825;SDS011;11075;47.944;11.776;2023-10-19T10:42:07;1.65;;;1.38;;
21825;SDS011;11075;47.944;11.776;2023-10-19T10:44:42;1.65;;;1.50;;
21825;SDS011;11075;47.944;11.776;2023-10-19T10:47:20;3.75;;;1.50;;
21825;SDS011;11075;47.944;11.776;2023-10-19T10:49:52;4.95;;;1.77;;
21825;SDS011;11075;47.944;11.776;2023-10-19T10:52:28;3.15;;;1.95;;
21825;SDS011;11075;47.944;11.776;2023-10-19T10:54:56;3.78;;;1.90;;
21825;SDS011;11075;47.944;11.776;2023-10-19T10:57:31;8.27;;;1.98;;
21825;SDS011;11075;47.944;11.776;2023-10-19T11:00:12;3.13;;;1.98;;
21825;SDS011;11075;47.944;11.776;2023-10-19T11:02:44;6.20;;;2.70;;
21825;SDS011;11075;47.944;11.776;2023-10-19T11:05:13;3.83;;;1.95;;
21825;SDS011;11075;47.944;11.776;2023-10-19T11:10:44;3.28;;;1.88;;
21825;SDS011;11075;47.944;11.776;2023-10-19T11:13:13;4.05;;;1.88;;
21825;SDS011;11075;47.944;11.776;2023-10-19T11:15:48;8.00;;;3.00;;
21825;SDS011;11075;47.944;11.776;2023-10-19T11:21:12;6.40;;;2.22;;
21825;SDS011;11075;47.944;11.776;2023-10-19T11:26:09;5.28;;;2.05;;
21825;SDS011;11075;47.944;11.776;2023-10-19T11:28:37;5.65;;;2.08;;
21825;SDS011;11075;47.944;11.776;2023-10-19T11:31:18;4.35;;;2.20;;
21825;SDS011;11075;47.944;11.776;2023-10-19T11:33:46;7.25;;;2.10;;
21825;SDS011;11075;47.944;11.776;2023-10-19T11:36:16;9.52;;;2.15;;
21825;SDS011;11075;47.944;11.776;2023-10-19T11:38:45;4.88;;;1.90;;
21825;SDS011;11075;47.944;11.776;2023-10-19T11:41:13;4.80;;;2.22;;
21825;SDS011;11075;47.944;11.776;2023-10-19T11:43:42;6.57;;;1.77;;
21825;SDS011;11075;47.944;11.776;2023-10-19T11:46:12;4.22;;;1.70;;
21825;SDS011;11075;47.944;11.776;2023-10-19T11:48:39;5.47;;;2.35;;
21825;SDS011;11075;47.944;11.776;2023-10-19T11:51:06;3.75;;;2.03;;
21825;SDS011;11075;47.944;11.776;2023-10-19T11:53:34;3.78;;;1.90;;
21825;SDS011;11075;47.944;11.776;2023-10-19T11:56:06;3.05;;;1.83;;
21825;SDS011;11075;47.944;11.776;2023-10-19T11:58:34;3.30;;;1.50;;
21825;SDS011;11075;47.944;11.776;2023-10-19T12:01:02;5.82;;;2.45;;
21825;SDS011;11075;47.944;11.776;2023-10-19T12:03:31;8.50;;;2.33;;
21825;SDS011;11075;47.944;11.776;2023-10-19T12:06:01;6.97;;;1.85;;
21825;SDS011;11075;47.944;11.776;2023-10-19T12:08:30;2.25;;;1.40;;
21825;SDS011;11075;47.944;11.776;2023-10-19T12:10:57;5.38;;;1.95;;
21825;SDS011;11075;47.944;11.776;2023-10-19T12:13:24;6.45;;;2.00;;
21825;SDS011;11075;47.944;11.776;2023-10-19T12:15:51;8.35;;;2.53;;
21825;SDS011;11075;47.944;11.776;2023-10-19T12:18:18;4.35;;;1.80;;
21825;SDS011;11075;47.944;11.776;2023-10-19T12:20:46;2.97;;;1.75;;
21825;SDS011;11075;47.944;11.776;2023-10-19T12:23:14;3.60;;;1.98;;
21825;SDS011;11075;47.944;11.776;2023-10-19T12:25:41;3.55;;;1.60;;
21825;SDS011;11075;47.944;11.776;2023-10-19T12:28:23;7.25;;;1.45;;
21825;SDS011;11075;47.944;11.776;2023-10-19T12:30:52;5.45;;;1.77;;
21825;SDS011;11075;47.944;11.776;2023-10-19T12:33:19;5.47;;;2.28;;
21825;SDS011;11075;47.944;11.776;2023-10-19T12:35:47;7.40;;;2.30;;
21825;SDS011;11075;47.944;11.776;2023-10-19T12:38:24;3.17;;;1.95;;
21825;SDS011;11075;47.944;11.776;2023-10-19T12:40:52;3.10;;;1.95;;
21825;SDS011;11075;47.944;11.776;2023-10-19T12:43:19;4.80;;;2.45;;
21825;SDS011;11075;47.944;11.776;2023-10-19T12:45:48;5.07;;;2.25;;
21825;SDS011;11075;47.944;11.776;2023-10-19T12:48:24;3.22;;;2.08;;
21825;SDS011;11075;47.944;11.776;2023-10-19T12:51:04;3.30;;;1.77;;
21825;SDS011;11075;47.944;11.776;2023-10-19T12:53:33;4.28;;;1.70;;
21825;SDS011;11075;47.944;11.776;2023-10-19T12:56:01;5.53;;;1.58;;
21825;SDS011;11075;47.944;11.776;2023-10-19T12:58:29;2.85;;;1.70;;
21825;SDS011;11075;47.944;11.776;2023-10-19T13:00:56;4.85;;;2.13;;
21825;SDS011;11075;47.944;11.776;2023-10-19T13:03:24;2.75;;;2.10;;
21825;SDS011;11075;47.944;11.776;2023-10-19T13:05:54;3.97;;;2.20;;
21825;SDS011;11075;47.944;11.776;2023-10-19T13:08:24;3.05;;;2.20;;
21825;SDS011;11075;47.944;11.776;2023-10-19T13:10:53;5.07;;;2.50;;
21825;SDS011;11075;47.944;11.776;2023-10-19T13:13:30;5.03;;;2.40;;
21825;SDS011;11075;47.944;11.776;2023-10-19T13:15:57;3.85;;;2.00;;
21825;SDS011;11075;47.944;11.776;2023-10-19T13:18:24;4.93;;;2.13;;
21825;SDS011;11075;47.944;11.776;2023-10-19T13:21:00;4.30;;;2.60;;
21825;SDS011;11075;47.944;11.776;2023-10-19T13:23:36;3.50;;;2.67;;
21825;SDS011;11075;47.944;11.776;2023-10-19T13:26:02;3.45;;;2.45;;
21825;SDS011;11075;47.944;11.776;2023-10-19T13:28:44;3.95;;;2.50;;
21825;SDS011;11075;47.944;11.776;2023-10-19T13:31:11;5.50;;;2.95;;
21825;SDS011;11075;47.944;11.776;2023-10-19T13:33:42;4.97;;;2.67;;
21825;SDS011;11075;47.944;11.776;2023-10-19T13:36:10;3.60;;;2.00;;
21825;SDS011;11075;47.944;11.776;2023-10-19T13:38:39;3.03;;;2.20;;
21825;SDS011;11075;47.944;11.776;2023-10-19T13:41:07;5.80;;;2.63;;
21825;SDS011;11075;47.944;11.776;2023-10-19T13:43:37;6.18;;;2.75;;
21825;SDS011;11075;47.944;11.776;2023-10-19T13:46:05;4.80;;;2.90;;
21825;SDS011;11075;47.944;11.776;2023-10-19T13:48:32;7.85;;;3.08;;
21825;SDS011;11075;47.944;11.776;2023-10-19T13:50:59;10.05;;;3.85;;
21825;SDS011;11075;47.944;11.776;2023-10-19T13:53:39;5.43;;;2.75;;
21825;SDS011;11075;47.944;11.776;2023-10-19T13:56:09;9.90;;;3.92;;
21825;SDS011;11075;47.944;11.776;2023-10-19T13:58:37;5.68;;;3.55;;
21825;SDS011;11075;47.944;11.776;2023-10-19T14:01:08;4.90;;;4.10;;
21825;SDS011;11075;47.944;11.776;2023-10-19T14:03:38;9.70;;;3.92;;
21825;SDS011;11075;47.944;11.776;2023-10-19T14:06:10;6.10;;;3.15;;
21825;SDS011;11075;47.944;11.776;2023-10-19T14:08:38;5.40;;;2.92;;
21825;SDS011;11075;47.944;11.776;2023-10-19T14:11:05;5.07;;;2.63;;
21825;SDS011;11075;47.944;11.776;2023-10-19T14:13:33;12.07;;;4.13;;
21825;SDS011;11075;47.944;11.776;2023-10-19T14:16:05;55.80;;;6.35;;
21825;SDS011;11075;47.944;11.776;2023-10-19T14:18:35;36.33;;;5.95;;
21825;SDS011;11075;47.944;11.776;2023-10-19T14:21:13;7.80;;;3.63;;
21825;SDS011;11075;47.944;11.776;2023-10-19T14:23:45;7.15;;;3.72;;
21825;SDS011;11075;47.944;11.776;2023-10-19T14:26:14;7.72;;;4.32;;
21825;SDS011;11075;47.944;11.776;2023-10-19T14:28:41;8.25;;;4.97;;
21825;SDS011;11075;47.944;11.776;2023-10-19T14:31:08;7.28;;;4.20;;
21825;SDS011;11075;47.944;11.776;2023-10-19T14:33:37;10.10;;;3.80;;
21825;SDS011;11075;47.944;11.776;2023-10-19T14:36:05;8.30;;;4.55;;
21825;SDS011;11075;47.944;11.776;2023-10-19T14:38:32;6.57;;;4.45;;
21825;SDS011;11075;47.944;11.776;2023-10-19T14:41:00;9.38;;;4.97;;
21825;SDS011;11075;47.944;11.776;2023-10-19T14:43:27;10.57;;;6.10;;
21825;SDS011;11075;47.944;11.776;2023-10-19T14:45:56;7.25;;;5.40;;
21825;SDS011;11075;47.944;11.776;2023-10-19T14:48:26;7.53;;;5.35;;
21825;SDS011;11075;47.944;11.776;2023-10-19T14:50:55;7.38;;;5.15;;
21825;SDS011;11075;47.944;11.776;2023-10-19T14:53:26;8.27;;;5.40;;
21825;SDS011;11075;47.944;11.776;2023-10-19T14:55:54;7.15;;;5.15;;
21825;SDS011;11075;47.944;11.776;2023-10-19T14:58:23;7.55;;;5.28;;
21825;SDS011;11075;47.944;11.776;2023-10-19T15:00:52;16.70;;;6.68;;
21825;SDS011;11075;47.944;11.776;2023-10-19T15:03:21;51.45;;;7.47;;
21825;SDS011;11075;47.944;11.776;2023-10-19T15:05:51;12.85;;;4.38;;
21825;SDS011;11075;47.944;11.776;2023-10-19T15:08:21;15.25;;;4.35;;
21825;SDS011;11075;47.944;11.776;2023-10-19T15:11:59;6.53;;;4.10;;
21825;SDS011;11075;47.944;11.776;2023-10-19T15:13:59;6.65;;;4.20;;